sensor_id;sensor_type;location;lat;lon;timestamp;temperature;humidity
28530;DHT22;15737;49.760;6.632;2023-02-01T00:01:26;5.80;99.90
28530;DHT22;15737;49.760;6.632;2023-02-01T00:03:51;5.80;99.90
28530;DHT22;15737;49.760;6.632;2023-02-01T00:06:17;5.80;99.90
28530;DHT22;15737;49.760;6.632;2023-02-01T00:08:42;5.80;99.90
28530;DHT22;15737;49.760;6.632;2023-02-01T00:11:10;5.80;99.90
28530;DHT22;15737;49.760;6.632;2023-02-01T00:13:37;5.90;99.90
28530;DHT22;15737;49.760;6.632;2023-02-01T00:16:05;5.90;99.90
28530;DHT22;15737;49.760;6.632;2023-02-01T00:18:32;5.90;99.90
28530;DHT22;15737;49.760;6.632;2023-02-01T00:20:57;5.90;99.90
28530;DHT22;15737;49.760;6.632;2023-02-01T00:23:23;6.00;99.90
28530;DHT22;15737;49.760;6.632;2023-02-01T00:25:48;6.00;99.90
28530;DHT22;15737;49.760;6.632;2023-02-01T00:28:14;5.90;99.90
28530;DHT22;15737;49.760;6.632;2023-02-01T00:30:39;5.90;99.90
28530;DHT22;15737;49.760;6.632;2023-02-01T00:33:05;5.90;99.90
28530;DHT22;15737;49.760;6.632;2023-02-01T00:35:30;5.90;99.90
28530;DHT22;15737;49.760;6.632;2023-02-01T00:37:56;5.90;99.90
28530;DHT22;15737;49.760;6.632;2023-02-01T00:40:24;5.90;99.90
28530;DHT22;15737;49.760;6.632;2023-02-01T00:42:49;5.90;99.90
28530;DHT22;15737;49.760;6.632;2023-02-01T00:45:15;5.90;99.90
28530;DHT22;15737;49.760;6.632;2023-02-01T00:47:41;5.90;99.90
28530;DHT22;15737;49.760;6.632;2023-02-01T00:50:07;5.90;99.90
28530;DHT22;15737;49.760;6.632;2023-02-01T00:52:32;5.90;99.90
28530;DHT22;15737;49.760;6.632;2023-02-01T00:54:58;5.90;99.90
28530;DHT22;15737;49.760;6.632;2023-02-01T00:57:23;5.90;99.90
28530;DHT22;15737;49.760;6.632;2023-02-01T00:59:49;5.90;99.90
28530;DHT22;15737;49.760;6.632;2023-02-01T01:02:14;5.80;99.90
28530;DHT22;15737;49.760;6.632;2023-02-01T01:04:40;5.80;99.90
28530;DHT22;15737;49.760;6.632;2023-02-01T01:07:06;5.80;99.90
28530;DHT22;15737;49.760;6.632;2023-02-01T01:09:31;5.80;99.90
28530;DHT22;15737;49.760;6.632;2023-02-01T01:11:57;5.80;99.90
28530;DHT22;15737;49.760;6.632;2023-02-01T01:14:30;5.80;99.90
28530;DHT22;15737;49.760;6.632;2023-02-01T01:16:55;5.80;99.90
28530;DHT22;15737;49.760;6.632;2023-02-01T01:19:21;5.80;99.90
28530;DHT22;15737;49.760;6.632;2023-02-01T01:21:46;5.80;99.90
28530;DHT22;15737;49.760;6.632;2023-02-01T01:24:12;5.80;99.90
28530;DHT22;15737;49.760;6.632;2023-02-01T01:26:38;5.80;99.90
28530;DHT22;15737;49.760;6.632;2023-02-01T01:29:03;5.80;99.90
28530;DHT22;15737;49.760;6.632;2023-02-01T01:31:30;5.90;99.90
28530;DHT22;15737;49.760;6.632;2023-02-01T01:33:57;5.90;99.90
28530;DHT22;15737;49.760;6.632;2023-02-01T01:36:24;5.90;99.90
28530;DHT22;15737;49.760;6.632;2023-02-01T01:38:50;5.90;99.90
28530;DHT22;15737;49.760;6.632;2023-02-01T01:41:24;5.90;99.90
28530;DHT22;15737;49.760;6.632;2023-02-01T01:43:56;6.00;99.90
28530;DHT22;15737;49.760;6.632;2023-02-01T01:46:27;6.00;99.90
28530;DHT22;15737;49.760;6.632;2023-02-01T01:49:13;6.00;99.90
28530;DHT22;15737;49.760;6.632;2023-02-01T01:51:51;6.00;99.90
28530;DHT22;15737;49.760;6.632;2023-02-01T01:56:52;6.10;99.90
28530;DHT22;15737;49.760;6.632;2023-02-01T01:59:20;6.10;99.90
28530;DHT22;15737;49.760;6.632;2023-02-01T02:01:47;6.10;99.90
28530;DHT22;15737;49.760;6.632;2023-02-01T02:04:13;6.20;99.90
28530;DHT22;15737;49.760;6.632;2023-02-01T02:07:05;6.20;99.90
28530;DHT22;15737;49.760;6.632;2023-02-01T02:09:32;6.10;99.90
28530;DHT22;15737;49.760;6.632;2023-02-01T02:11:58;6.20;99.90
28530;DHT22;15737;49.760;6.632;2023-02-01T02:14:24;6.20;99.90
28530;DHT22;15737;49.760;6.632;2023-02-01T02:17:06;6.20;99.90
28530;DHT22;15737;49.760;6.632;2023-02-01T02:19:58;6.20;99.90
28530;DHT22;15737;49.760;6.632;2023-02-01T02:22:42;6.20;99.90
28530;DHT22;15737;49.760;6.632;2023-02-01T02:25:48;6.30;99.90
28530;DHT22;15737;49.760;6.632;2023-02-01T02:31:25;6.20;99.90
28530;DHT22;15737;49.760;6.632;2023-02-01T02:42:58;6.30;99.90
28530;DHT22;15737;49.760;6.632;2023-02-01T02:45:52;6.30;99.90
28530;DHT22;15737;49.760;6.632;2023-02-01T02:48:51;6.30;99.90
28530;DHT22;15737;49.760;6.632;2023-02-01T02:51:27;6.30;99.90
28530;DHT22;15737;49.760;6.632;2023-02-01T02:54:18;6.30;99.90
28530;DHT22;15737;49.760;6.632;2023-02-01T02:57:07;6.30;99.90
28530;DHT22;15737;49.760;6.632;2023-02-01T02:59:53;6.30;99.90
28530;DHT22;15737;49.760;6.632;2023-02-01T03:02:39;6.30;99.90
28530;DHT22;15737;49.760;6.632;2023-02-01T03:05:23;6.20;99.90
28530;DHT22;15737;49.760;6.632;2023-02-01T03:07:53;6.20;99.90
28530;DHT22;15737;49.760;6.632;2023-02-01T03:10:24;6.20;99.90
28530;DHT22;15737;49.760;6.632;2023-02-01T03:12:52;6.30;99.90
28530;DHT22;15737;49.760;6.632;2023-02-01T03:15:32;6.30;99.90
28530;DHT22;15737;49.760;6.632;2023-02-01T03:18:01;6.30;99.90
28530;DHT22;15737;49.760;6.632;2023-02-01T03:20:30;6.30;99.90
28530;DHT22;15737;49.760;6.632;2023-02-01T03:22:58;6.10;99.90
28530;DHT22;15737;49.760;6.632;2023-02-01T03:25:30;6.10;99.90
28530;DHT22;15737;49.760;6.632;2023-02-01T03:28:07;6.00;99.90
28530;DHT22;15737;49.760;6.632;2023-02-01T03:30:38;6.00;99.90
28530;DHT22;15737;49.760;6.632;2023-02-01T03:33:11;5.90;99.90
28530;DHT22;15737;49.760;6.632;2023-02-01T03:38:27;5.70;99.90
28530;DHT22;15737;49.760;6.632;2023-02-01T03:41:27;5.60;99.90
28530;DHT22;15737;49.760;6.632;2023-02-01T03:43:58;5.60;99.90
28530;DHT22;15737;49.760;6.632;2023-02-01T03:46:37;5.60;99.90
28530;DHT22;15737;49.760;6.632;2023-02-01T03:49:10;5.60;99.90
28530;DHT22;15737;49.760;6.632;2023-02-01T03:51:40;5.60;99.90
28530;DHT22;15737;49.760;6.632;2023-02-01T03:54:09;5.60;99.90
28530;DHT22;15737;49.760;6.632;2023-02-01T03:56:38;5.60;99.90
28530;DHT22;15737;49.760;6.632;2023-02-01T03:59:05;5.60;99.90
28530;DHT22;15737;49.760;6.632;2023-02-01T04:01:31;5.60;99.90
28530;DHT22;15737;49.760;6.632;2023-02-01T04:03:57;5.60;99.90
28530;DHT22;15737;49.760;6.632;2023-02-01T04:06:24;5.60;99.90
28530;DHT22;15737;49.760;6.632;2023-02-01T04:08:50;5.50;99.90
28530;DHT22;15737;49.760;6.632;2023-02-01T04:11:16;5.50;99.90
28530;DHT22;15737;49.760;6.632;2023-02-01T04:13:41;5.50;99.90
28530;DHT22;15737;49.760;6.632;2023-02-01T04:16:07;5.50;99.90
28530;DHT22;15737;49.760;6.632;2023-02-01T04:18:33;5.50;99.90
28530;DHT22;15737;49.760;6.632;2023-02-01T04:20:58;5.50;99.90
28530;DHT22;15737;49.760;6.632;2023-02-01T04:23:24;5.50;99.90
28530;DHT22;15737;49.760;6.632;2023-02-01T04:25:49;5.50;99.90
28530;DHT22;15737;49.760;6.632;2023-02-01T04:28:15;5.50;99.90
28530;DHT22;15737;49.760;6.632;2023-02-01T04:30:40;5.50;99.90
28530;DHT22;15737;49.760;6.632;2023-02-01T04:33:05;5.50;99.90
28530;DHT22;15737;49.760;6.632;2023-02-01T04:35:31;5.50;99.90
28530;DHT22;15737;49.760;6.632;2023-02-01T04:37:57;5.50;99.90
28530;DHT22;15737;49.760;6.632;2023-02-01T04:40:22;5.60;99.90
28530;DHT22;15737;49.760;6.632;2023-02-01T04:42:48;5.60;99.90
28530;DHT22;15737;49.760;6.632;2023-02-01T04:45:13;5.60;99.90
28530;DHT22;15737;49.760;6.632;2023-02-01T04:47:39;5.60;99.90
28530;DHT22;15737;49.760;6.632;2023-02-01T04:50:05;5.70;99.90
28530;DHT22;15737;49.760;6.632;2023-02-01T04:52:31;5.70;99.90
28530;DHT22;15737;49.760;6.632;2023-02-01T04:54:57;5.70;99.90
28530;DHT22;15737;49.760;6.632;2023-02-01T04:57:24;5.70;99.90
28530;DHT22;15737;49.760;6.632;2023-02-01T04:59:50;5.70;99.90
28530;DHT22;15737;49.760;6.632;2023-02-01T05:02:16;5.70;99.90
28530;DHT22;15737;49.760;6.632;2023-02-01T05:04:41;5.70;99.90
28530;DHT22;15737;49.760;6.632;2023-02-01T05:07:06;5.70;99.90
28530;DHT22;15737;49.760;6.632;2023-02-01T05:09:32;5.70;99.90
28530;DHT22;15737;49.760;6.632;2023-02-01T05:11:57;5.80;99.90
28530;DHT22;15737;49.760;6.632;2023-02-01T05:14:42;5.70;99.90
28530;DHT22;15737;49.760;6.632;2023-02-01T05:17:07;5.70;99.90
28530;DHT22;15737;49.760;6.632;2023-02-01T05:19:33;5.80;99.90
28530;DHT22;15737;49.760;6.632;2023-02-01T05:21:58;5.80;99.90
28530;DHT22;15737;49.760;6.632;2023-02-01T05:24:24;5.80;99.90
28530;DHT22;15737;49.760;6.632;2023-02-01T05:26:49;5.80;99.90
28530;DHT22;15737;49.760;6.632;2023-02-01T05:29:16;5.80;99.90
28530;DHT22;15737;49.760;6.632;2023-02-01T05:31:44;5.80;99.90
28530;DHT22;15737;49.760;6.632;2023-02-01T05:34:10;5.90;99.90
28530;DHT22;15737;49.760;6.632;2023-02-01T05:36:36;5.90;99.90
28530;DHT22;15737;49.760;6.632;2023-02-01T05:39:02;5.90;99.90
28530;DHT22;15737;49.760;6.632;2023-02-01T05:41:28;5.90;99.90
28530;DHT22;15737;49.760;6.632;2023-02-01T05:43:53;5.80;99.90
28530;DHT22;15737;49.760;6.632;2023-02-01T05:46:19;5.80;99.90
28530;DHT22;15737;49.760;6.632;2023-02-01T05:48:44;5.80;99.90
28530;DHT22;15737;49.760;6.632;2023-02-01T05:51:10;5.80;99.90
28530;DHT22;15737;49.760;6.632;2023-02-01T05:53:36;5.80;99.90
28530;DHT22;15737;49.760;6.632;2023-02-01T05:56:01;5.80;99.90
28530;DHT22;15737;49.760;6.632;2023-02-01T05:58:27;5.80;99.90
28530;DHT22;15737;49.760;6.632;2023-02-01T06:00:53;5.80;99.90
28530;DHT22;15737;49.760;6.632;2023-02-01T06:03:19;5.80;99.90
28530;DHT22;15737;49.760;6.632;2023-02-01T06:05:45;5.80;99.90
28530;DHT22;15737;49.760;6.632;2023-02-01T06:08:11;5.90;99.90
28530;DHT22;15737;49.760;6.632;2023-02-01T06:10:37;5.80;99.90
28530;DHT22;15737;49.760;6.632;2023-02-01T06:13:02;5.90;99.90
28530;DHT22;15737;49.760;6.632;2023-02-01T06:15:29;5.90;99.90
28530;DHT22;15737;49.760;6.632;2023-02-01T06:17:54;5.90;99.90
28530;DHT22;15737;49.760;6.632;2023-02-01T06:20:20;5.80;99.90
28530;DHT22;15737;49.760;6.632;2023-02-01T06:22:46;5.80;99.90
28530;DHT22;15737;49.760;6.632;2023-02-01T06:25:11;5.70;99.90
28530;DHT22;15737;49.760;6.632;2023-02-01T06:27:37;5.70;99.90
28530;DHT22;15737;49.760;6.632;2023-02-01T06:30:04;5.60;99.90
28530;DHT22;15737;49.760;6.632;2023-02-01T06:32:30;5.60;99.90
28530;DHT22;15737;49.760;6.632;2023-02-01T06:34:56;5.60;99.90
28530;DHT22;15737;49.760;6.632;2023-02-01T06:37:23;5.50;99.90
28530;DHT22;15737;49.760;6.632;2023-02-01T06:39:50;5.40;99.90
28530;DHT22;15737;49.760;6.632;2023-02-01T06:42:16;5.30;99.90
28530;DHT22;15737;49.760;6.632;2023-02-01T06:44:41;5.20;99.90
28530;DHT22;15737;49.760;6.632;2023-02-01T06:47:07;5.20;99.90
28530;DHT22;15737;49.760;6.632;2023-02-01T06:49:32;5.30;99.90
28530;DHT22;15737;49.760;6.632;2023-02-01T06:51:58;5.30;99.90
28530;DHT22;15737;49.760;6.632;2023-02-01T06:54:26;5.30;99.90
28530;DHT22;15737;49.760;6.632;2023-02-01T06:56:52;5.30;99.90
28530;DHT22;15737;49.760;6.632;2023-02-01T06:59:17;5.30;99.90
28530;DHT22;15737;49.760;6.632;2023-02-01T07:01:43;5.20;99.90
28530;DHT22;15737;49.760;6.632;2023-02-01T07:06:38;5.20;99.90
28530;DHT22;15737;49.760;6.632;2023-02-01T07:09:04;5.30;99.90
28530;DHT22;15737;49.760;6.632;2023-02-01T07:11:29;5.20;99.90
28530;DHT22;15737;49.760;6.632;2023-02-01T07:13:55;5.20;99.90
28530;DHT22;15737;49.760;6.632;2023-02-01T07:16:21;5.20;99.90
28530;DHT22;15737;49.760;6.632;2023-02-01T07:18:47;5.20;99.90
28530;DHT22;15737;49.760;6.632;2023-02-01T07:21:13;5.20;99.90
28530;DHT22;15737;49.760;6.632;2023-02-01T07:23:39;5.10;99.90
28530;DHT22;15737;49.760;6.632;2023-02-01T07:26:06;5.10;99.90
28530;DHT22;15737;49.760;6.632;2023-02-01T07:28:34;5.20;99.90
28530;DHT22;15737;49.760;6.632;2023-02-01T07:31:14;5.30;99.90
28530;DHT22;15737;49.760;6.632;2023-02-01T07:33:41;5.30;99.90
28530;DHT22;15737;49.760;6.632;2023-02-01T07:36:08;5.40;99.90
28530;DHT22;15737;49.760;6.632;2023-02-01T07:38:35;5.40;99.90
28530;DHT22;15737;49.760;6.632;2023-02-01T07:41:03;5.40;99.90
28530;DHT22;15737;49.760;6.632;2023-02-01T07:43:29;5.40;99.90
28530;DHT22;15737;49.760;6.632;2023-02-01T07:45:56;5.50;99.90
28530;DHT22;15737;49.760;6.632;2023-02-01T07:48:24;5.50;99.90
28530;DHT22;15737;49.760;6.632;2023-02-01T07:51:02;5.50;99.90
28530;DHT22;15737;49.760;6.632;2023-02-01T07:53:29;5.50;99.90
28530;DHT22;15737;49.760;6.632;2023-02-01T07:55:55;5.50;99.90
28530;DHT22;15737;49.760;6.632;2023-02-01T07:58:25;5.60;99.90
28530;DHT22;15737;49.760;6.632;2023-02-01T08:00:51;5.60;99.90
28530;DHT22;15737;49.760;6.632;2023-02-01T08:03:35;5.50;99.90
28530;DHT22;15737;49.760;6.632;2023-02-01T08:06:01;5.60;99.90
28530;DHT22;15737;49.760;6.632;2023-02-01T08:08:26;5.60;99.90
28530;DHT22;15737;49.760;6.632;2023-02-01T08:11:00;5.60;99.90
28530;DHT22;15737;49.760;6.632;2023-02-01T08:13:25;5.60;99.90
28530;DHT22;15737;49.760;6.632;2023-02-01T08:15:51;5.60;99.90
28530;DHT22;15737;49.760;6.632;2023-02-01T08:18:16;5.60;99.90
28530;DHT22;15737;49.760;6.632;2023-02-01T08:20:43;5.60;99.90
28530;DHT22;15737;49.760;6.632;2023-02-01T08:23:11;5.60;99.90
28530;DHT22;15737;49.760;6.632;2023-02-01T08:28:15;5.60;99.90
28530;DHT22;15737;49.760;6.632;2023-02-01T08:30:40;5.70;99.90
28530;DHT22;15737;49.760;6.632;2023-02-01T08:33:08;5.80;99.90
28530;DHT22;15737;49.760;6.632;2023-02-01T08:35:38;5.90;99.90
28530;DHT22;15737;49.760;6.632;2023-02-01T08:38:04;5.90;99.90
28530;DHT22;15737;49.760;6.632;2023-02-01T08:40:45;5.80;99.90
28530;DHT22;15737;49.760;6.632;2023-02-01T08:43:11;5.80;99.90
28530;DHT22;15737;49.760;6.632;2023-02-01T08:45:37;5.80;99.90
28530;DHT22;15737;49.760;6.632;2023-02-01T08:48:02;5.80;99.90
28530;DHT22;15737;49.760;6.632;2023-02-01T08:50:28;5.80;99.90
28530;DHT22;15737;49.760;6.632;2023-02-01T08:52:54;5.80;99.90
28530;DHT22;15737;49.760;6.632;2023-02-01T08:55:20;5.80;99.90
28530;DHT22;15737;49.760;6.632;2023-02-01T08:57:45;5.70;99.90
28530;DHT22;15737;49.760;6.632;2023-02-01T09:00:14;5.70;99.90
28530;DHT22;15737;49.760;6.632;2023-02-01T09:02:41;5.70;99.90
28530;DHT22;15737;49.760;6.632;2023-02-01T09:05:07;5.80;99.90
28530;DHT22;15737;49.760;6.632;2023-02-01T09:07:34;5.80;99.90
28530;DHT22;15737;49.760;6.632;2023-02-01T09:10:01;5.80;99.90
28530;DHT22;15737;49.760;6.632;2023-02-01T09:12:28;5.80;99.90
28530;DHT22;15737;49.760;6.632;2023-02-01T09:14:55;5.70;99.90
28530;DHT22;15737;49.760;6.632;2023-02-01T09:17:20;5.80;99.90
28530;DHT22;15737;49.760;6.632;2023-02-01T09:19:46;5.80;99.90
28530;DHT22;15737;49.760;6.632;2023-02-01T09:22:11;5.90;99.90
28530;DHT22;15737;49.760;6.632;2023-02-01T09:24:37;5.90;99.90
28530;DHT22;15737;49.760;6.632;2023-02-01T09:27:03;6.00;99.90
28530;DHT22;15737;49.760;6.632;2023-02-01T09:29:28;6.00;99.90
28530;DHT22;15737;49.760;6.632;2023-02-01T09:31:54;6.00;99.90
28530;DHT22;15737;49.760;6.632;2023-02-01T09:34:19;6.10;99.90
28530;DHT22;15737;49.760;6.632;2023-02-01T09:36:45;6.20;99.90
28530;DHT22;15737;49.760;6.632;2023-02-01T09:39:10;6.30;99.90
28530;DHT22;15737;49.760;6.632;2023-02-01T09:41:54;6.30;99.90
28530;DHT22;15737;49.760;6.632;2023-02-01T09:47:01;6.40;99.90
28530;DHT22;15737;49.760;6.632;2023-02-01T09:49:30;6.40;99.90
28530;DHT22;15737;49.760;6.632;2023-02-01T09:51:56;6.40;99.90
28530;DHT22;15737;49.760;6.632;2023-02-01T09:54:25;6.30;99.90
28530;DHT22;15737;49.760;6.632;2023-02-01T09:56:56;6.30;99.90
28530;DHT22;15737;49.760;6.632;2023-02-01T10:01:49;6.30;99.90
28530;DHT22;15737;49.760;6.632;2023-02-01T10:09:42;6.50;99.90
28530;DHT22;15737;49.760;6.632;2023-02-01T10:12:35;6.50;99.90
28530;DHT22;15737;49.760;6.632;2023-02-01T10:15:30;6.60;99.90
28530;DHT22;15737;49.760;6.632;2023-02-01T10:20:48;6.80;99.90
28530;DHT22;15737;49.760;6.632;2023-02-01T10:23:34;6.90;99.90
28530;DHT22;15737;49.760;6.632;2023-02-01T10:26:16;7.00;99.90
28530;DHT22;15737;49.760;6.632;2023-02-01T10:28:45;6.90;99.90
28530;DHT22;15737;49.760;6.632;2023-02-01T10:31:11;6.90;99.90
28530;DHT22;15737;49.760;6.632;2023-02-01T10:33:42;6.90;99.90
28530;DHT22;15737;49.760;6.632;2023-02-01T10:36:19;7.00;99.90
28530;DHT22;15737;49.760;6.632;2023-02-01T10:38:47;7.00;99.90
28530;DHT22;15737;49.760;6.632;2023-02-01T10:41:19;7.10;99.90
28530;DHT22;15737;49.760;6.632;2023-02-01T10:43:50;7.00;99.90
28530;DHT22;15737;49.760;6.632;2023-02-01T10:46:17;7.10;99.90
28530;DHT22;15737;49.760;6.632;2023-02-01T10:48:43;7.20;99.90
28530;DHT22;15737;49.760;6.632;2023-02-01T10:51:20;7.20;99.90
28530;DHT22;15737;49.760;6.632;2023-02-01T10:53:58;7.30;99.90
28530;DHT22;15737;49.760;6.632;2023-02-01T10:56:28;7.40;99.90
28530;DHT22;15737;49.760;6.632;2023-02-01T10:59:18;7.50;99.90
28530;DHT22;15737;49.760;6.632;2023-02-01T11:01:46;7.50;99.90
28530;DHT22;15737;49.760;6.632;2023-02-01T11:04:18;7.60;99.90
28530;DHT22;15737;49.760;6.632;2023-02-01T11:06:54;7.80;99.90
28530;DHT22;15737;49.760;6.632;2023-02-01T11:09:31;7.80;99.90
28530;DHT22;15737;49.760;6.632;2023-02-01T11:11:58;7.70;99.90
28530;DHT22;15737;49.760;6.632;2023-02-01T11:17:15;7.60;99.90
28530;DHT22;15737;49.760;6.632;2023-02-01T11:19:55;7.60;99.90
28530;DHT22;15737;49.760;6.632;2023-02-01T11:22:21;7.60;99.90
28530;DHT22;15737;49.760;6.632;2023-02-01T11:24:47;7.60;99.90
28530;DHT22;15737;49.760;6.632;2023-02-01T11:27:16;7.60;99.90
28530;DHT22;15737;49.760;6.632;2023-02-01T11:29:45;7.80;99.90
28530;DHT22;15737;49.760;6.632;2023-02-01T11:32:13;7.70;99.90
28530;DHT22;15737;49.760;6.632;2023-02-01T11:34:45;7.70;99.90
28530;DHT22;15737;49.760;6.632;2023-02-01T11:37:25;7.70;99.90
28530;DHT22;15737;49.760;6.632;2023-02-01T11:40:00;7.70;99.90
28530;DHT22;15737;49.760;6.632;2023-02-01T11:42:27;7.60;99.90
28530;DHT22;15737;49.760;6.632;2023-02-01T11:45:20;7.50;99.90
28530;DHT22;15737;49.760;6.632;2023-02-01T11:47:52;7.50;99.90
28530;DHT22;15737;49.760;6.632;2023-02-01T11:50:36;7.40;99.90
28530;DHT22;15737;49.760;6.632;2023-02-01T11:56:02;7.20;99.90
28530;DHT22;15737;49.760;6.632;2023-02-01T12:01:44;7.20;99.90
28530;DHT22;15737;49.760;6.632;2023-02-01T12:06:54;7.30;99.90
28530;DHT22;15737;49.760;6.632;2023-02-01T12:12:16;7.30;99.90
28530;DHT22;15737;49.760;6.632;2023-02-01T12:17:41;7.40;99.90
28530;DHT22;15737;49.760;6.632;2023-02-01T12:22:55;7.70;99.90
28530;DHT22;15737;49.760;6.632;2023-02-01T12:30:57;8.70;99.90
28530;DHT22;15737;49.760;6.632;2023-02-01T12:33:37;8.60;99.90
28530;DHT22;15737;49.760;6.632;2023-02-01T12:39:22;8.50;99.90
28530;DHT22;15737;49.760;6.632;2023-02-01T12:44:42;8.40;99.90
28530;DHT22;15737;49.760;6.632;2023-02-01T12:47:20;8.20;99.90
28530;DHT22;15737;49.760;6.632;2023-02-01T12:49:59;8.20;99.90
28530;DHT22;15737;49.760;6.632;2023-02-01T12:55:25;8.60;99.90
28530;DHT22;15737;49.760;6.632;2023-02-01T12:57:57;8.60;99.90
28530;DHT22;15737;49.760;6.632;2023-02-01T13:00:43;8.60;99.90
28530;DHT22;15737;49.760;6.632;2023-02-01T13:03:34;9.00;99.90
28530;DHT22;15737;49.760;6.632;2023-02-01T13:06:28;9.40;99.90
28530;DHT22;15737;49.760;6.632;2023-02-01T13:11:38;10.20;99.90
28530;DHT22;15737;49.760;6.632;2023-02-01T13:14:23;10.40;99.90
28530;DHT22;15737;49.760;6.632;2023-02-01T13:16:54;10.70;99.90
28530;DHT22;15737;49.760;6.632;2023-02-01T13:22:37;10.40;99.90
28530;DHT22;15737;49.760;6.632;2023-02-01T13:25:29;9.90;99.90
28530;DHT22;15737;49.760;6.632;2023-02-01T13:27:56;9.60;99.90
28530;DHT22;15737;49.760;6.632;2023-02-01T13:30:34;9.50;99.90
28530;DHT22;15737;49.760;6.632;2023-02-01T13:41:12;8.80;99.90
28530;DHT22;15737;49.760;6.632;2023-02-01T13:43:43;8.70;99.90
28530;DHT22;15737;49.760;6.632;2023-02-01T13:46:11;8.40;99.90
28530;DHT22;15737;49.760;6.632;2023-02-01T13:48:49;8.20;99.90
28530;DHT22;15737;49.760;6.632;2023-02-01T13:51:28;8.10;99.90
28530;DHT22;15737;49.760;6.632;2023-02-01T13:53:57;8.10;99.90
28530;DHT22;15737;49.760;6.632;2023-02-01T13:56:23;8.10;99.90
28530;DHT22;15737;49.760;6.632;2023-02-01T13:58:50;8.20;99.90
28530;DHT22;15737;49.760;6.632;2023-02-01T14:01:32;8.30;99.90
28530;DHT22;15737;49.760;6.632;2023-02-01T14:04:06;8.20;99.90
28530;DHT22;15737;49.760;6.632;2023-02-01T14:19:36;9.40;99.90
28530;DHT22;15737;49.760;6.632;2023-02-01T14:22:31;9.90;99.90
28530;DHT22;15737;49.760;6.632;2023-02-01T14:25:00;10.20;99.90
28530;DHT22;15737;49.760;6.632;2023-02-01T14:27:35;9.80;99.90
28530;DHT22;15737;49.760;6.632;2023-02-01T14:30:05;9.30;99.90
28530;DHT22;15737;49.760;6.632;2023-02-01T14:32:40;9.10;99.90
28530;DHT22;15737;49.760;6.632;2023-02-01T14:35:20;8.90;99.90
28530;DHT22;15737;49.760;6.632;2023-02-01T14:37:50;8.90;99.90
28530;DHT22;15737;49.760;6.632;2023-02-01T14:40:24;8.70;99.90
28530;DHT22;15737;49.760;6.632;2023-02-01T14:47:52;8.80;99.90
28530;DHT22;15737;49.760;6.632;2023-02-01T14:55:45;8.60;99.90
28530;DHT22;15737;49.760;6.632;2023-02-01T14:58:48;8.50;99.90
28530;DHT22;15737;49.760;6.632;2023-02-01T15:01:21;8.40;99.90
28530;DHT22;15737;49.760;6.632;2023-02-01T15:03:58;8.30;99.90
28530;DHT22;15737;49.760;6.632;2023-02-01T15:09:09;8.30;99.90
28530;DHT22;15737;49.760;6.632;2023-02-01T15:14:21;8.20;99.90
28530;DHT22;15737;49.760;6.632;2023-02-01T15:16:46;8.20;99.90
28530;DHT22;15737;49.760;6.632;2023-02-01T15:19:23;8.10;99.90
28530;DHT22;15737;49.760;6.632;2023-02-01T15:21:51;8.20;99.90
28530;DHT22;15737;49.760;6.632;2023-02-01T15:24:26;8.30;99.90
28530;DHT22;15737;49.760;6.632;2023-02-01T15:26:53;8.40;99.90
28530;DHT22;15737;49.760;6.632;2023-02-01T15:29:21;8.40;99.90
28530;DHT22;15737;49.760;6.632;2023-02-01T15:31:50;8.20;99.90
28530;DHT22;15737;49.760;6.632;2023-02-01T15:34:17;8.10;99.90
28530;DHT22;15737;49.760;6.632;2023-02-01T15:36:43;8.00;99.90
28530;DHT22;15737;49.760;6.632;2023-02-01T15:41:46;7.90;99.90
28530;DHT22;15737;49.760;6.632;2023-02-01T15:44:20;7.80;99.90
28530;DHT22;15737;49.760;6.632;2023-02-01T15:46:49;7.80;99.90
28530;DHT22;15737;49.760;6.632;2023-02-01T15:49:20;7.90;99.90
28530;DHT22;15737;49.760;6.632;2023-02-01T15:51:47;7.90;99.90
28530;DHT22;15737;49.760;6.632;2023-02-01T15:56:43;7.80;99.90
28530;DHT22;15737;49.760;6.632;2023-02-01T15:59:17;7.80;99.90
28530;DHT22;15737;49.760;6.632;2023-02-01T16:01:43;7.80;99.90
28530;DHT22;15737;49.760;6.632;2023-02-01T16:04:15;7.80;99.90
28530;DHT22;15737;49.760;6.632;2023-02-01T16:07:04;7.80;99.90
28530;DHT22;15737;49.760;6.632;2023-02-01T16:09:59;7.70;99.90
28530;DHT22;15737;49.760;6.632;2023-02-01T16:12:33;7.70;99.90
28530;DHT22;15737;49.760;6.632;2023-02-01T16:17:37;7.60;99.90
28530;DHT22;15737;49.760;6.632;2023-02-01T16:20:02;7.60;99.90
28530;DHT22;15737;49.760;6.632;2023-02-01T16:22:34;7.50;99.90
28530;DHT22;15737;49.760;6.632;2023-02-01T16:25:14;7.50;99.90
28530;DHT22;15737;49.760;6.632;2023-02-01T16:27:51;7.40;99.90
28530;DHT22;15737;49.760;6.632;2023-02-01T16:35:44;7.40;99.90
28530;DHT22;15737;49.760;6.632;2023-02-01T16:43:48;7.20;99.90
28530;DHT22;15737;49.760;6.632;2023-02-01T16:46:28;7.10;99.90
28530;DHT22;15737;49.760;6.632;2023-02-01T16:49:19;7.10;99.90
28530;DHT22;15737;49.760;6.632;2023-02-01T17:04:58;6.70;99.90
28530;DHT22;15737;49.760;6.632;2023-02-01T17:07:39;6.70;99.90
28530;DHT22;15737;49.760;6.632;2023-02-01T17:10:38;6.70;99.90
28530;DHT22;15737;49.760;6.632;2023-02-01T17:13:21;6.70;99.90
28530;DHT22;15737;49.760;6.632;2023-02-01T17:16:03;6.80;99.90
28530;DHT22;15737;49.760;6.632;2023-02-01T17:18:34;6.80;99.90
28530;DHT22;15737;49.760;6.632;2023-02-01T17:21:02;6.80;99.90
28530;DHT22;15737;49.760;6.632;2023-02-01T17:23:29;6.90;99.90
28530;DHT22;15737;49.760;6.632;2023-02-01T17:25:55;6.90;99.90
28530;DHT22;15737;49.760;6.632;2023-02-01T17:28:22;6.90;99.90
28530;DHT22;15737;49.760;6.632;2023-02-01T17:30:48;6.80;99.90
28530;DHT22;15737;49.760;6.632;2023-02-01T17:33:24;6.80;99.90
28530;DHT22;15737;49.760;6.632;2023-02-01T17:35:53;6.80;99.90
28530;DHT22;15737;49.760;6.632;2023-02-01T17:38:18;6.80;99.90
28530;DHT22;15737;49.760;6.632;2023-02-01T17:40:44;6.80;99.90
28530;DHT22;15737;49.760;6.632;2023-02-01T17:43:21;6.80;99.90
28530;DHT22;15737;49.760;6.632;2023-02-01T17:46:00;6.80;99.90
28530;DHT22;15737;49.760;6.632;2023-02-01T17:48:26;6.80;99.90
28530;DHT22;15737;49.760;6.632;2023-02-01T17:50:52;6.80;99.90
28530;DHT22;15737;49.760;6.632;2023-02-01T17:53:29;6.80;99.90
28530;DHT22;15737;49.760;6.632;2023-02-01T17:55:56;6.80;99.90
28530;DHT22;15737;49.760;6.632;2023-02-01T17:58:25;6.80;99.90
28530;DHT22;15737;49.760;6.632;2023-02-01T18:00:51;6.80;99.90
28530;DHT22;15737;49.760;6.632;2023-02-01T18:03:23;6.80;99.90
28530;DHT22;15737;49.760;6.632;2023-02-01T18:08:20;6.70;99.90
28530;DHT22;15737;49.760;6.632;2023-02-01T18:10:50;6.60;99.90
28530;DHT22;15737;49.760;6.632;2023-02-01T18:13:16;6.50;99.90
28530;DHT22;15737;49.760;6.632;2023-02-01T18:15:42;6.50;99.90
28530;DHT22;15737;49.760;6.632;2023-02-01T18:18:08;6.50;99.90
28530;DHT22;15737;49.760;6.632;2023-02-01T18:23:16;6.60;99.90
28530;DHT22;15737;49.760;6.632;2023-02-01T18:25:42;6.70;99.90
28530;DHT22;15737;49.760;6.632;2023-02-01T18:28:08;6.70;99.90
28530;DHT22;15737;49.760;6.632;2023-02-01T18:30:34;6.70;99.90
28530;DHT22;15737;49.760;6.632;2023-02-01T18:33:00;6.70;99.90
28530;DHT22;15737;49.760;6.632;2023-02-01T18:38:05;6.80;99.90